Time;durP1;ratioP1;P1;durP2;ratioP2;P2;SDS_P1;SDS_P2;PMS_P1;PMS_P2;Temp;Humidity;BMP_temperature;BMP_pressure;BME280_temperature;BME280_humidity;BME280_pressure;Samples;Min_cycle;Max_cycle;Signal;HPM_P1;HPM_P2
2022/01/22 00:02:00;;;;;;;9.98;6.15;;;4.70;99.90;;;;;;5072053;28;20668;-51
2022/01/22 00:04:26;;;;;;;8.68;7.35;;;4.70;99.90;;;;;;5072422;28;20199;-50
2022/01/22 00:06:55;;;;;;;8.02;6.78;;;4.70;99.90;;;;;;5072216;28;20210;-51
2022/01/22 00:09:25;;;;;;;9.00;7.20;;;4.70;99.90;;;;;;5071675;28;20558;-50
2022/01/22 00:11:54;;;;;;;7.90;7.10;;;4.70;99.90;;;;;;5072403;28;20175;-50
2022/01/22 00:14:23;;;;;;;7.18;6.28;;;4.80;99.90;;;;;;5072325;28;20680;-51
2022/01/22 00:16:50;;;;;;;6.68;5.95;;;4.80;99.90;;;;;;5072025;28;20210;-51
2022/01/22 00:19:17;;;;;;;8.88;6.80;;;4.80;99.90;;;;;;5071730;28;20222;-51
2022/01/22 00:21:43;;;;;;;9.60;6.82;;;4.80;99.90;;;;;;5071985;28;20199;-51
2022/01/22 00:24:11;;;;;;;10.55;6.70;;;4.80;99.90;;;;;;5071559;28;20695;-51
2022/01/22 00:26:38;;;;;;;8.75;7.20;;;4.80;99.90;;;;;;5072135;28;20203;-50
2022/01/22 00:29:06;;;;;;;13.07;8.82;;;4.80;99.90;;;;;;5071879;28;20214;-50
2022/01/22 00:31:35;;;;;;;11.48;8.45;;;4.80;99.90;;;;;;5071901;28;20214;-52
2022/01/22 00:34:01;;;;;;;11.50;8.07;;;4.80;99.90;;;;;;5053937;28;20296;-50
2022/01/22 00:36:28;;;;;;;10.20;8.13;;;4.80;99.90;;;;;;5071653;28;20196;-51
2022/01/22 00:38:55;;;;;;;13.48;8.88;;;4.80;99.90;;;;;;5053230;28;20222;-52
2022/01/22 00:41:21;;;;;;;13.38;9.55;;;4.80;99.90;;;;;;5053486;28;20210;-51
2022/01/22 00:43:49;;;;;;;14.75;9.70;;;4.90;99.90;;;;;;5053446;28;20220;-50
2022/01/22 00:46:17;;;;;;;11.07;8.07;;;4.90;99.90;;;;;;5071497;28;20274;-50
2022/01/22 00:48:44;;;;;;;10.38;8.73;;;4.90;99.90;;;;;;5071169;28;20211;-50
2022/01/22 00:51:12;;;;;;;11.70;8.73;;;4.90;99.90;;;;;;5071494;28;20207;-50
2022/01/22 00:53:38;;;;;;;12.93;9.53;;;4.90;99.90;;;;;;5071569;28;20206;-50
2022/01/22 00:56:05;;;;;;;11.05;9.05;;;4.90;99.90;;;;;;5071614;28;20555;-51
2022/01/22 00:58:32;;;;;;;10.63;8.30;;;4.90;99.90;;;;;;5052990;28;20230;-51
2022/01/22 01:00:59;;;;;;;12.20;8.73;;;4.70;99.90;;;;;;5071260;28;20195;-51
2022/01/22 01:03:31;;;;;;;12.27;8.13;;;4.90;99.90;;;;;;5071495;28;20223;-51
2022/01/22 01:05:57;;;;;;;9.88;7.88;;;4.90;99.90;;;;;;5071467;28;20196;-51
2022/01/22 01:08:24;;;;;;;11.17;8.00;;;4.90;99.90;;;;;;5053061;28;20284;-52
2022/01/22 01:10:52;;;;;;;12.82;7.53;;;4.90;99.90;;;;;;5053658;28;20857;-51
2022/01/22 01:13:18;;;;;;;11.10;8.45;;;4.90;99.90;;;;;;5053396;28;20344;-50
2022/01/22 01:15:57;;;;;;;10.60;7.40;;;4.90;99.90;;;;;;5053306;28;20191;-51
2022/01/22 01:32:19;;;;;;;6.50;5.20;;;4.90;99.90;;;;;;5024557;28;20241;-51
2022/01/22 01:34:50;;;;;;;6.35;5.05;;;4.90;99.90;;;;;;5057520;28;20683;-50
2022/01/22 01:37:19;;;;;;;8.55;5.28;;;4.90;99.90;;;;;;5075073;28;20533;-51
2022/01/22 01:39:51;;;;;;;8.75;5.68;;;4.90;99.90;;;;;;5074859;28;20561;-51
2022/01/22 01:42:23;;;;;;;9.88;5.78;;;4.90;99.90;;;;;;5057292;28;20207;-51
2022/01/22 01:44:50;;;;;;;6.72;5.25;;;4.90;99.90;;;;;;5057113;28;20195;-50
2022/01/22 01:47:24;;;;;;;6.63;5.07;;;5.00;99.90;;;;;;5056900;28;20202;-51
2022/01/22 01:49:51;;;;;;;6.78;5.47;;;4.90;99.90;;;;;;5056698;28;20200;-50
2022/01/22 01:52:33;;;;;;;6.78;4.80;;;4.90;99.90;;;;;;5057004;28;20261;-51
2022/01/22 01:55:04;;;;;;;7.85;5.70;;;4.90;99.90;;;;;;5056987;28;20675;-51
2022/01/22 01:57:39;;;;;;;6.03;5.18;;;4.90;99.90;;;;;;5056794;28;20229;-50
2022/01/22 02:00:13;;;;;;;6.40;5.28;;;4.90;99.90;;;;;;5056664;28;20214;-50
2022/01/22 02:02:44;;;;;;;6.63;5.95;;;4.90;99.90;;;;;;5075254;28;20203;-50
2022/01/22 02:05:13;;;;;;;7.32;5.45;;;4.90;99.90;;;;;;5056946;28;20254;-51
2022/01/22 02:07:44;;;;;;;7.22;5.05;;;4.90;99.90;;;;;;5074307;28;20226;-51
2022/01/22 02:10:18;;;;;;;7.35;5.35;;;4.90;99.90;;;;;;5056715;28;20231;-51
2022/01/22 02:23:57;;;;;;;6.57;4.82;;;4.90;99.90;;;;;;5056466;28;20227;-51
2022/01/22 02:26:24;;;;;;;8.43;5.70;;;4.90;99.90;;;;;;5056357;28;20208;-50
2022/01/22 02:28:52;;;;;;;7.65;5.90;;;4.90;99.90;;;;;;5055902;28;20227;-50
2022/01/22 02:31:33;;;;;;;10.30;6.30;;;4.90;99.90;;;;;;5056357;28;20194;-51
2022/01/22 02:34:10;;;;;;;7.20;6.05;;;4.90;99.90;;;;;;5056787;28;20206;-50
2022/01/22 02:36:44;;;;;;;6.57;5.85;;;4.90;99.90;;;;;;5056188;28;20199;-50
2022/01/22 02:39:15;;;;;;;10.00;6.07;;;4.90;99.90;;;;;;5055836;28;20326;-50
2022/01/22 02:41:46;;;;;;;8.38;5.90;;;4.90;99.90;;;;;;5056272;28;20207;-51
2022/01/22 02:44:21;;;;;;;7.45;5.30;;;4.90;99.90;;;;;;5056247;28;20235;-51
2022/01/22 02:46:50;;;;;;;6.40;5.20;;;4.90;99.90;;;;;;5074055;28;20727;-51
2022/01/22 02:49:17;;;;;;;7.22;4.75;;;4.90;99.90;;;;;;5055461;28;20245;-51
2022/01/22 02:51:45;;;;;;;7.30;5.35;;;4.90;99.90;;;;;;5074035;28;20596;-51
2022/01/22 02:54:12;;;;;;;7.73;5.50;;;4.90;99.90;;;;;;5074320;28;20194;-51
2022/01/22 02:56:38;;;;;;;9.45;5.70;;;4.90;99.90;;;;;;5073949;28;20449;-51
2022/01/22 02:59:05;;;;;;;8.90;5.32;;;4.90;99.90;;;;;;5055350;28;20227;-50
2022/01/22 03:01:32;;;;;;;8.15;5.50;;;4.90;99.90;;;;;;5055752;28;20208;-51
2022/01/22 03:03:59;;;;;;;6.53;5.10;;;4.90;99.90;;;;;;5055460;28;20313;-51
2022/01/22 03:06:26;;;;;;;8.05;5.20;;;5.00;99.90;;;;;;5055503;28;20449;-51
2022/01/22 03:08:54;;;;;;;7.10;5.40;;;4.90;99.90;;;;;;5055269;28;20666;-50
2022/01/22 03:11:24;;;;;;;6.13;4.87;;;4.90;99.90;;;;;;5055499;28;20455;-50
2022/01/22 03:16:52;;;;;;;5.53;3.63;;;5.00;99.90;;;;;;5055451;28;20575;-50
2022/01/22 03:19:32;;;;;;;3.97;3.58;;;4.90;99.90;;;;;;5072978;28;20691;-51
2022/01/22 03:22:12;;;;;;;5.00;3.70;;;4.80;99.90;;;;;;5055427;28;20202;-51
2022/01/22 03:27:28;;;;;;;5.90;5.38;;;4.80;99.90;;;;;;5073112;28;20192;-51
2022/01/22 03:29:56;;;;;;;4.60;3.93;;;4.60;99.90;;;;;;5054984;28;20261;-51
2022/01/22 03:32:25;;;;;;;5.25;3.50;;;4.70;99.90;;;;;;5073616;28;20810;-50
2022/01/22 03:34:57;;;;;;;5.65;3.38;;;4.70;99.90;;;;;;5055062;28;20245;-50
2022/01/22 03:37:26;;;;;;;5.45;3.70;;;4.60;99.90;;;;;;5055040;28;20210;-51
2022/01/22 03:39:55;;;;;;;7.15;4.10;;;4.60;99.90;;;;;;5054776;28;20388;-51
2022/01/22 03:42:22;;;;;;;4.82;3.72;;;4.50;99.90;;;;;;5054512;28;20203;-51
2022/01/22 03:44:49;;;;;;;7.35;4.00;;;4.50;99.90;;;;;;5054775;28;20723;-51
2022/01/22 03:47:16;;;;;;;9.10;4.05;;;4.40;99.90;;;;;;5072710;28;20290;-50
2022/01/22 03:49:43;;;;;;;7.80;4.13;;;4.40;99.90;;;;;;5054596;28;20199;-51
2022/01/22 03:52:13;;;;;;;5.28;4.60;;;4.20;99.90;;;;;;5054927;28;20293;-51
2022/01/22 03:54:40;;;;;;;4.97;4.45;;;4.20;99.90;;;;;;5054845;28;20206;-51
2022/01/22 03:57:09;;;;;;;11.75;5.10;;;4.30;99.90;;;;;;5054590;28;20231;-51
2022/01/22 03:59:49;;;;;;;7.18;4.93;;;4.30;99.90;;;;;;5054165;28;20795;-51
2022/01/22 04:05:11;;;;;;;6.30;4.75;;;4.20;99.90;;;;;;5054459;28;20219;-50
2022/01/22 04:10:21;;;;;;;10.65;5.10;;;4.20;99.90;;;;;;5072235;28;20191;-50
2022/01/22 04:12:55;;;;;;;7.60;4.60;;;4.10;99.90;;;;;;5054457;28;20211;-51
2022/01/22 04:15:25;;;;;;;4.40;3.95;;;4.10;99.90;;;;;;5072279;28;20191;-50
2022/01/22 04:26:14;;;;;;;4.90;4.10;;;4.10;99.90;;;;;;5054024;28;20207;-51
2022/01/22 04:28:42;;;;;;;6.85;4.50;;;4.10;99.90;;;;;;5053858;28;20317;-50
2022/01/22 04:31:09;;;;;;;6.13;3.88;;;4.10;99.90;;;;;;5072033;28;20200;-50
2022/01/22 04:33:36;;;;;;;7.07;4.22;;;4.10;99.90;;;;;;5053773;28;20199;-50
2022/01/22 04:36:02;;;;;;;7.28;3.90;;;4.20;99.90;;;;;;5071854;28;20659;-51
2022/01/22 04:38:29;;;;;;;6.07;4.07;;;4.20;99.90;;;;;;5071536;28;20602;-50
2022/01/22 04:40:55;;;;;;;6.60;3.80;;;4.20;99.90;;;;;;5053924;28;20199;-50
2022/01/22 04:43:22;;;;;;;5.25;3.60;;;4.30;99.90;;;;;;5071859;28;20226;-50
2022/01/22 04:46:04;;;;;;;4.00;3.38;;;4.30;99.90;;;;;;5053948;28;20755;-51
2022/01/22 04:48:43;;;;;;;6.25;3.75;;;4.30;99.90;;;;;;5071308;28;20213;-51
2022/01/22 04:56:49;;;;;;;4.93;3.35;;;4.30;99.90;;;;;;5053705;28;20210;-50
2022/01/22 04:59:15;;;;;;;5.60;3.85;;;4.30;99.90;;;;;;5053616;28;20321;-49
2022/01/22 05:01:43;;;;;;;6.95;4.28;;;4.20;99.90;;;;;;5071678;28;20199;-48
2022/01/22 05:04:36;;;;;;;5.55;3.70;;;4.20;99.90;;;;;;5032883;28;20684;-49
2022/01/22 05:07:17;;;;;;;5.28;3.70;;;4.20;99.90;;;;;;5053537;28;20203;-49
2022/01/22 05:10:03;;;;;;;7.45;3.75;;;4.00;99.90;;;;;;5071443;28;20256;-49
2022/01/22 05:12:32;;;;;;;15.43;4.00;;;4.20;99.90;;;;;;5053669;28;20207;-49
2022/01/22 05:14:59;;;;;;;7.80;3.50;;;4.20;99.90;;;;;;5053340;28;20602;-48
2022/01/22 05:17:30;;;;;;;3.88;2.70;;;4.20;99.90;;;;;;5053258;28;20199;-49
2022/01/22 05:20:04;;;;;;;6.43;3.42;;;4.20;99.90;;;;;;5053115;28;20249;-48
2022/01/22 05:22:47;;;;;;;6.57;3.33;;;4.20;99.90;;;;;;5053552;28;20206;-50
2022/01/22 05:25:19;;;;;;;11.88;3.50;;;4.10;99.90;;;;;;5053523;28;20514;-48
2022/01/22 05:27:58;;;;;;;6.55;3.42;;;4.10;99.90;;;;;;5071058;28;20708;-51
2022/01/22 05:31:01;;;;;;;8.10;3.78;;;4.00;99.90;;;;;;5053424;28;20207;-50
2022/01/22 05:36:58;;;;;;;4.82;3.00;;;3.90;99.90;;;;;;5053234;28;20597;-50
2022/01/22 05:39:28;;;;;;;9.85;3.40;;;3.90;99.90;;;;;;5052872;28;20589;-50
2022/01/22 05:41:56;;;;;;;8.35;4.13;;;3.90;99.90;;;;;;5053180;28;20203;-50
2022/01/22 05:44:23;;;;;;;6.35;3.70;;;3.90;99.90;;;;;;5053074;28;20569;-50
2022/01/22 05:46:51;;;;;;;7.70;3.33;;;3.90;99.90;;;;;;5071195;28;20206;-50
2022/01/22 05:49:21;;;;;;;8.15;3.85;;;3.80;99.90;;;;;;5070650;28;20220;-50
2022/01/22 05:51:51;;;;;;;10.45;3.30;;;3.80;99.90;;;;;;5053132;28;20207;-50
2022/01/22 05:54:54;;;;;;;10.45;3.40;;;3.80;99.90;;;;;;5053073;28;20226;-49
2022/01/22 06:00:10;;;;;;;6.10;3.40;;;3.70;99.90;;;;;;5053041;28;20202;-50
2022/01/22 06:02:48;;;;;;;8.80;3.97;;;3.70;99.90;;;;;;5071367;28;20203;-51
2022/01/22 06:05:21;;;;;;;5.85;3.67;;;3.60;99.90;;;;;;5052936;28;20318;-50
2022/01/22 06:07:48;;;;;;;8.48;3.47;;;3.50;99.90;;;;;;5056071;28;20227;-50
2022/01/22 06:10:17;;;;;;;5.35;3.65;;;3.60;99.90;;;;;;5056658;28;20200;-50
2022/01/22 06:12:58;;;;;;;7.95;3.90;;;3.60;99.90;;;;;;5074717;28;20200;-50
2022/01/22 06:15:27;;;;;;;5.15;3.53;;;3.50;99.90;;;;;;5056477;28;20202;-50
2022/01/22 06:18:12;;;;;;;8.73;3.50;;;3.50;99.90;;;;;;5074132;28;20226;-51
2022/01/22 06:20:40;;;;;;;8.80;4.10;;;3.50;99.90;;;;;;5056455;28;20200;-50
2022/01/22 06:23:07;;;;;;;8.57;3.80;;;3.50;99.90;;;;;;5056489;28;20285;-50
2022/01/22 06:25:34;;;;;;;9.32;4.78;;;3.50;99.90;;;;;;5074188;28;20238;-50
2022/01/22 06:28:02;;;;;;;9.05;3.83;;;3.50;99.90;;;;;;5056022;28;20772;-50
2022/01/22 06:30:29;;;;;;;8.23;4.05;;;3.50;99.90;;;;;;5056292;28;20264;-50
2022/01/22 06:32:57;;;;;;;6.47;3.42;;;3.40;99.90;;;;;;5056479;28;20269;-50
2022/01/22 06:35:24;;;;;;;7.50;3.90;;;3.40;99.90;;;;;;5056121;28;20222;-50
2022/01/22 06:37:53;;;;;;;10.65;4.00;;;3.30;99.90;;;;;;5055796;28;20647;-50
2022/01/22 06:43:46;;;;;;;9.13;4.30;;;3.40;99.90;;;;;;5073909;28;20203;-50
2022/01/22 06:46:29;;;;;;;9.35;4.72;;;3.40;99.90;;;;;;5055965;28;20229;-50
2022/01/22 06:49:16;;;;;;;10.02;3.90;;;3.30;99.90;;;;;;5073524;28;20688;-50
2022/01/22 06:52:01;;;;;;;13.10;4.38;;;3.30;99.90;;;;;;5073880;28;20198;-50
2022/01/22 06:54:29;;;;;;;6.95;3.80;;;3.30;99.90;;;;;;5055884;28;20192;-50
2022/01/22 06:56:56;;;;;;;8.50;4.35;;;3.20;99.90;;;;;;5073889;28;20200;-50
2022/01/22 06:59:27;;;;;;;8.90;4.32;;;3.20;99.90;;;;;;5055255;28;20231;-50
2022/01/22 07:01:54;;;;;;;14.43;4.65;;;3.30;99.90;;;;;;5055717;28;20253;-50
2022/01/22 07:04:23;;;;;;;6.25;4.47;;;3.20;99.90;;;;;;5055726;28;20231;-50
2022/01/22 07:07:09;;;;;;;6.22;4.32;;;3.30;99.90;;;;;;5073594;28;20203;-50
2022/01/22 07:09:38;;;;;;;10.52;4.90;;;3.20;99.90;;;;;;5055296;28;20265;-50
2022/01/22 07:12:06;;;;;;;9.02;4.97;;;3.30;99.90;;;;;;5055601;28;20223;-50
2022/01/22 07:14:33;;;;;;;10.85;5.90;;;3.30;99.90;;;;;;5055371;28;20236;-50
2022/01/22 07:17:00;;;;;;;9.25;5.03;;;3.20;99.90;;;;;;5055636;28;20200;-50
2022/01/22 07:19:39;;;;;;;7.95;4.20;;;3.30;99.90;;;;;;5054738;28;20226;-49
2022/01/22 07:22:33;;;;;;;6.47;4.05;;;3.30;99.90;;;;;;5055352;28;20199;-49
2022/01/22 07:25:08;;;;;;;6.15;4.15;;;3.30;99.90;;;;;;5055318;28;20219;-49
2022/01/22 07:27:36;;;;;;;9.10;4.72;;;3.30;99.90;;;;;;5055245;28;20223;-50
2022/01/22 07:30:03;;;;;;;9.38;4.53;;;3.30;99.90;;;;;;5072868;28;20195;-49
2022/01/22 07:32:35;;;;;;;8.13;4.18;;;3.30;99.90;;;;;;5055012;28;20572;-49
2022/01/22 07:35:03;;;;;;;6.82;4.25;;;3.40;99.90;;;;;;5055229;28;20288;-50
2022/01/22 07:37:31;;;;;;;7.95;4.75;;;3.40;99.90;;;;;;5054712;28;20215;-49
2022/01/22 07:40:10;;;;;;;5.93;4.50;;;3.40;99.90;;;;;;5054772;28;20286;-49
2022/01/22 07:42:49;;;;;;;5.03;4.30;;;3.50;99.90;;;;;;5054880;28;20211;-50
2022/01/22 07:45:35;;;;;;;8.25;4.85;;;3.50;99.90;;;;;;5072420;28;20309;-49
2022/01/22 07:48:10;;;;;;;6.68;4.65;;;3.50;99.90;;;;;;5054492;28;20296;-49
2022/01/22 07:50:55;;;;;;;7.35;4.85;;;3.50;99.90;;;;;;5073221;28;20556;-49
2022/01/22 07:53:24;;;;;;;7.15;5.25;;;3.50;99.90;;;;;;5072632;28;20275;-50
2022/01/22 07:55:53;;;;;;;13.52;5.28;;;3.50;99.90;;;;;;5054647;28;20733;-49
2022/01/22 07:58:19;;;;;;;11.80;5.60;;;3.50;99.90;;;;;;5054084;28;20231;-49
2022/01/22 08:00:46;;;;;;;11.18;5.57;;;3.50;99.90;;;;;;5054430;28;20227;-49
2022/01/22 08:03:13;;;;;;;10.15;5.28;;;3.50;99.90;;;;;;5054572;28;20200;-49
2022/01/22 08:06:00;;;;;;;11.05;6.07;;;3.50;99.90;;;;;;5072348;28;20238;-50
2022/01/22 08:08:47;;;;;;;16.75;5.75;;;3.50;99.90;;;;;;5020406;28;20226;-49
2022/01/22 08:11:41;;;;;;;10.70;6.03;;;3.50;99.90;;;;;;5045714;28;20207;-49
2022/01/22 08:14:09;;;;;;;9.20;5.50;;;3.50;99.90;;;;;;5055141;28;20203;-49
2022/01/22 08:16:35;;;;;;;10.18;5.90;;;3.50;99.90;;;;;;5054501;28;20679;-49
2022/01/22 08:19:02;;;;;;;6.18;5.05;;;3.50;99.90;;;;;;5054385;28;20750;-50
2022/01/22 08:21:29;;;;;;;12.15;6.50;;;3.60;99.90;;;;;;5054934;28;20200;-49
2022/01/22 08:24:31;;;;;;;10.10;5.80;;;3.50;99.90;;;;;;4952688;29;20214;-49
2022/01/22 08:27:17;;;;;;;6.88;4.95;;;3.60;99.90;;;;;;5033882;28;20241;-49
2022/01/22 08:29:46;;;;;;;7.95;5.45;;;3.60;99.90;;;;;;5053828;28;20652;-49
2022/01/22 08:32:44;;;;;;;11.30;5.80;;;3.60;99.90;;;;;;5071963;28;20195;-50
2022/01/22 08:37:54;;;;;;;9.23;6.15;;;3.50;99.90;;;;;;5053130;28;20622;-50
2022/01/22 08:40:21;;;;;;;13.70;5.55;;;3.40;99.90;;;;;;5053557;28;20237;-51
2022/01/22 08:42:50;;;;;;;10.10;5.65;;;3.50;99.90;;;;;;5053784;28;20199;-50
2022/01/22 08:45:17;;;;;;;9.48;5.75;;;3.70;99.90;;;;;;5072040;28;20300;-50
2022/01/22 08:47:44;;;;;;;8.52;6.25;;;3.70;99.90;;;;;;5053004;28;20247;-49
2022/01/22 08:50:12;;;;;;;10.35;5.30;;;3.80;99.90;;;;;;5053696;28;20249;-50
2022/01/22 08:52:39;;;;;;;8.95;5.07;;;3.90;99.90;;;;;;5053581;28;20230;-49
2022/01/22 08:55:08;;;;;;;9.27;5.53;;;3.80;99.90;;;;;;5053468;28;20196;-50
2022/01/22 08:57:35;;;;;;;9.85;5.43;;;4.00;99.90;;;;;;5053325;28;20684;-49
2022/01/22 09:00:13;;;;;;;13.65;6.30;;;3.80;99.90;;;;;;5053224;28;20214;-49
2022/01/22 09:02:56;;;;;;;14.38;5.93;;;4.10;99.90;;;;;;5053590;28;20230;-50
2022/01/22 09:05:41;;;;;;;8.70;4.72;;;4.10;99.90;;;;;;5053449;28;20711;-49
2022/01/22 09:08:40;;;;;;;8.77;4.90;;;4.10;99.90;;;;;;5070675;28;20226;-50
2022/01/22 09:11:24;;;;;;;10.80;4.60;;;4.20;99.90;;;;;;5053337;28;20207;-50
2022/01/22 09:13:59;;;;;;;9.55;4.28;;;4.20;99.90;;;;;;5071472;28;20202;-50
2022/01/22 09:16:34;;;;;;;7.18;4.15;;;4.20;99.90;;;;;;5053289;28;20226;-50
2022/01/22 09:19:06;;;;;;;7.82;4.40;;;4.20;99.90;;;;;;5052791;28;20230;-50
2022/01/22 09:21:33;;;;;;;13.00;4.78;;;4.20;99.90;;;;;;5053557;28;20207;-49
2022/01/22 09:24:00;;;;;;;7.50;4.82;;;4.30;99.90;;;;;;5053228;28;20739;-50
2022/01/22 09:26:27;;;;;;;5.25;3.80;;;4.30;99.90;;;;;;5071266;28;20222;-49
2022/01/22 09:28:55;;;;;;;7.90;4.00;;;4.20;99.90;;;;;;5052784;28;20219;-50
2022/01/22 09:31:24;;;;;;;6.43;3.50;;;4.30;99.90;;;;;;5052927;28;20285;-50
2022/01/22 09:33:55;;;;;;;6.95;2.78;;;4.40;99.90;;;;;;5053245;28;20213;-50
2022/01/22 09:36:38;;;;;;;4.50;3.05;;;4.30;99.90;;;;;;5053002;28;20195;-50
2022/01/22 09:39:19;;;;;;;5.90;3.53;;;4.40;99.90;;;;;;5052739;28;20223;-50
2022/01/22 09:42:06;;;;;;;6.93;3.70;;;4.50;99.90;;;;;;5055514;28;20209;-50
2022/01/22 09:44:52;;;;;;;8.00;3.83;;;4.50;99.90;;;;;;5056781;28;20210;-51
2022/01/22 09:47:28;;;;;;;9.57;3.78;;;4.60;99.90;;;;;;5056595;28;20207;-51
2022/01/22 09:50:17;;;;;;;6.45;3.70;;;4.60;99.90;;;;;;5075296;28;20210;-50
2022/01/22 09:53:11;;;;;;;6.65;3.22;;;4.60;99.90;;;;;;5056688;28;20209;-50
2022/01/22 09:55:57;;;;;;;9.00;4.35;;;4.60;99.90;;;;;;5074607;28;20252;-50
2022/01/22 09:58:51;;;;;;;12.25;5.50;;;4.60;99.90;;;;;;5056080;28;20261;-50
2022/01/22 10:01:33;;;;;;;7.90;3.78;;;4.60;99.90;;;;;;5056501;28;20210;-51
2022/01/22 10:04:09;;;;;;;7.93;3.67;;;4.40;99.90;;;;;;5056934;28;20211;-51
2022/01/22 10:06:58;;;;;;;7.50;3.00;;;4.60;99.90;;;;;;5074291;28;20215;-51
2022/01/22 10:09:55;;;;;;;5.10;2.90;;;4.60;99.90;;;;;;5056152;28;20740;-50
2022/01/22 10:12:59;;;;;;;4.35;3.22;;;4.60;99.90;;;;;;5056567;28;20203;-51
2022/01/22 10:15:34;;;;;;;4.68;2.50;;;4.50;99.90;;;;;;5073862;28;20673;-50
2022/01/22 10:18:04;;;;;;;4.95;2.10;;;4.50;99.90;;;;;;5055913;28;20215;-50
2022/01/22 10:20:34;;;;;;;6.57;3.45;;;4.50;99.90;;;;;;5073950;28;20664;-49
2022/01/22 10:23:04;;;;;;;6.95;3.15;;;4.50;99.90;;;;;;5074170;28;20195;-51
2022/01/22 10:25:36;;;;;;;6.80;3.25;;;4.50;99.90;;;;;;5074335;28;20208;-50
2022/01/22 10:28:05;;;;;;;4.57;3.20;;;4.60;99.90;;;;;;5073695;28;20218;-50
2022/01/22 10:30:39;;;;;;;11.65;3.55;;;4.60;99.90;;;;;;5073890;28;20191;-50
2022/01/22 10:33:22;;;;;;;6.70;3.63;;;4.80;99.90;;;;;;5073446;28;20195;-50
2022/01/22 10:36:15;;;;;;;12.25;3.95;;;4.80;99.90;;;;;;5074492;28;20233;-50
2022/01/22 10:39:07;;;;;;;10.68;5.78;;;4.90;99.90;;;;;;5073500;28;20734;-49
2022/01/22 10:41:37;;;;;;;6.05;4.00;;;4.90;99.90;;;;;;5073685;28;20203;-50
2022/01/22 10:44:07;;;;;;;6.30;3.30;;;4.90;99.90;;;;;;5074006;28;20196;-50
2022/01/22 10:46:45;;;;;;;7.88;3.75;;;5.00;99.90;;;;;;5073465;28;20237;-50
2022/01/22 10:49:14;;;;;;;7.10;3.73;;;4.90;99.90;;;;;;5073270;28;20219;-50
2022/01/22 10:51:47;;;;;;;4.30;3.10;;;5.00;99.90;;;;;;5073224;28;20770;-50
2022/01/22 10:54:16;;;;;;;6.95;3.40;;;4.90;99.90;;;;;;5072919;28;20911;-50
2022/01/22 10:56:42;;;;;;;5.22;3.60;;;5.00;99.90;;;;;;5073252;28;20198;-50
2022/01/22 10:59:10;;;;;;;6.30;3.10;;;5.00;99.90;;;;;;5072919;28;20240;-50
2022/01/22 11:01:52;;;;;;;11.45;3.65;;;5.10;99.90;;;;;;5073141;28;20198;-49
2022/01/22 11:04:22;;;;;;;4.90;3.10;;;5.10;99.90;;;;;;5073614;28;20203;-50
2022/01/22 11:06:54;;;;;;;5.90;3.03;;;5.10;99.90;;;;;;5073388;28;20561;-50
2022/01/22 11:09:23;;;;;;;5.07;2.78;;;5.00;99.90;;;;;;5072998;28;20306;-50
2022/01/22 11:11:51;;;;;;;7.50;2.77;;;5.10;99.90;;;;;;5073417;28;20203;-50
2022/01/22 11:14:19;;;;;;;6.90;3.00;;;5.10;99.90;;;;;;5072693;28;20914;-50
2022/01/22 11:16:47;;;;;;;6.82;3.25;;;5.20;99.90;;;;;;5072569;28;20425;-50
2022/01/22 11:19:16;;;;;;;5.88;3.30;;;5.20;99.90;;;;;;5072501;28;20215;-50
2022/01/22 11:21:47;;;;;;;7.80;3.65;;;5.30;99.90;;;;;;5072709;28;20217;-50
2022/01/22 11:24:17;;;;;;;7.18;3.38;;;5.40;99.90;;;;;;5072830;28;20203;-50
2022/01/22 11:26:48;;;;;;;6.90;3.70;;;5.40;99.90;;;;;;5072548;28;20700;-50
2022/01/22 11:29:16;;;;;;;9.43;4.90;;;5.40;99.90;;;;;;5072432;28;20450;-50
2022/01/22 11:31:46;;;;;;;6.97;4.25;;;5.40;99.90;;;;;;5072673;28;20192;-50
2022/01/22 11:34:15;;;;;;;7.38;4.55;;;5.20;99.90;;;;;;5072501;28;20195;-50
2022/01/22 11:36:48;;;;;;;9.90;3.67;;;5.40;99.90;;;;;;5072611;28;20268;-50
2022/01/22 11:39:20;;;;;;;5.50;2.53;;;5.40;99.90;;;;;;5072743;28;20216;-50
2022/01/22 11:41:53;;;;;;;6.70;3.50;;;5.40;99.90;;;;;;5072603;28;20576;-50
2022/01/22 11:44:32;;;;;;;3.67;2.50;;;5.40;99.90;;;;;;5071937;28;20207;-50
2022/01/22 11:47:13;;;;;;;6.40;2.87;;;5.50;99.90;;;;;;5072254;28;20474;-50
2022/01/22 11:49:40;;;;;;;5.87;2.57;;;5.50;99.90;;;;;;5072010;28;20434;-51
2022/01/22 11:52:24;;;;;;;5.43;2.92;;;5.50;99.90;;;;;;5072193;28;20781;-50
2022/01/22 11:54:53;;;;;;;7.60;2.72;;;5.50;99.90;;;;;;5072334;28;20198;-50
2022/01/22 11:57:23;;;;;;;6.90;2.60;;;5.50;99.90;;;;;;5071639;28;20616;-50
2022/01/22 12:00:18;;;;;;;6.03;2.47;;;5.40;99.90;;;;;;5054293;28;20429;-50
2022/01/22 12:02:45;;;;;;;7.50;3.30;;;5.40;99.90;;;;;;5072039;28;20203;-49
2022/01/22 12:05:12;;;;;;;6.93;3.97;;;5.50;99.90;;;;;;5071469;28;20203;-50
2022/01/22 12:07:38;;;;;;;6.85;2.70;;;5.40;99.90;;;;;;5071244;28;20487;-50
2022/01/22 12:10:33;;;;;;;4.68;2.35;;;5.50;99.90;;;;;;5072596;28;20200;-50
2022/01/22 12:16:09;;;;;;;6.87;3.47;;;5.50;99.90;;;;;;5071881;28;20795;-50
2022/01/22 12:18:39;;;;;;;9.40;4.03;;;5.50;99.90;;;;;;5053813;28;20470;-50
2022/01/22 12:24:01;;;;;;;8.03;3.57;;;5.50;99.90;;;;;;5071950;28;20480;-50
2022/01/22 12:26:43;;;;;;;8.48;3.60;;;5.40;99.90;;;;;;5071928;28;20472;-49
2022/01/22 12:29:42;;;;;;;6.63;3.23;;;5.60;99.90;;;;;;5071514;28;20224;-50
2022/01/22 12:32:17;;;;;;;7.43;3.30;;;5.50;99.90;;;;;;5071272;28;20537;-50
2022/01/22 12:34:58;;;;;;;11.30;3.50;;;5.50;99.90;;;;;;5071509;28;20437;-49
2022/01/22 12:37:28;;;;;;;5.13;3.80;;;5.60;99.90;;;;;;5071247;28;20405;-49
2022/01/22 12:39:56;;;;;;;3.95;3.17;;;5.60;99.90;;;;;;5070922;28;20974;-50
2022/01/22 12:42:28;;;;;;;9.80;4.27;;;5.60;99.90;;;;;;5070854;28;20208;-49
2022/01/22 12:44:59;;;;;;;6.77;3.10;;;5.60;99.90;;;;;;5071446;28;20771;-51
2022/01/22 12:47:27;;;;;;;15.70;4.32;;;5.60;99.90;;;;;;5071186;28;20459;-49
2022/01/22 12:50:00;;;;;;;4.80;3.30;;;5.60;99.90;;;;;;5070490;28;20293;-49
2022/01/22 12:52:28;;;;;;;7.97;4.65;;;5.40;99.90;;;;;;5071334;28;20204;-49
2022/01/22 12:54:58;;;;;;;7.28;3.50;;;5.60;99.90;;;;;;5070955;28;20195;-49
2022/01/22 12:57:27;;;;;;;6.17;3.80;;;5.60;99.90;;;;;;5070833;28;20195;-50
2022/01/22 13:00:01;;;;;;;8.83;3.37;;;5.60;99.90;;;;;;5071311;28;20966;-50
2022/01/22 13:02:38;;;;;;;11.97;4.03;;;5.50;99.90;;;;;;5053576;28;20458;-50
2022/01/22 13:05:05;;;;;;;8.23;3.80;;;5.60;99.90;;;;;;5071764;28;20445;-50
2022/01/22 13:07:53;;;;;;;3.17;2.07;;;5.60;99.90;;;;;;5052361;28;20492;-51
2022/01/22 13:10:44;;;;;;;4.87;2.23;;;5.40;99.90;;;;;;5071184;28;20525;-51
2022/01/22 13:13:14;;;;;;;4.45;2.65;;;5.50;99.90;;;;;;5071323;28;20929;-51
2022/01/22 13:15:41;;;;;;;5.47;2.40;;;5.50;99.90;;;;;;5071368;28;20274;-51
2022/01/22 13:18:09;;;;;;;10.73;2.77;;;5.50;99.90;;;;;;5070673;28;20453;-51
2022/01/22 13:20:36;;;;;;;6.15;3.33;;;5.40;99.90;;;;;;5071404;28;20935;-50
2022/01/22 13:23:14;;;;;;;6.17;2.90;;;5.40;99.90;;;;;;5070834;28;20227;-50
2022/01/22 13:25:41;;;;;;;9.27;3.43;;;5.40;99.90;;;;;;5070921;28;20441;-49
2022/01/22 13:28:11;;;;;;;14.67;4.07;;;5.30;99.90;;;;;;5070494;28;20491;-49
2022/01/22 13:30:45;;;;;;;6.35;3.42;;;5.50;99.90;;;;;;5071086;28;20438;-49
2022/01/22 13:33:17;;;;;;;7.27;3.50;;;5.50;99.90;;;;;;5071219;28;20349;-49
2022/01/22 13:35:55;;;;;;;14.20;7.97;;;5.50;99.90;;;;;;5071312;28;20446;-50
2022/01/22 13:49:26;;;;;;;7.50;4.17;;;5.60;99.90;;;;;;5069841;28;20537;-52
2022/01/22 13:51:54;;;;;;;7.67;4.33;;;5.60;99.90;;;;;;5070058;28;20462;-51
2022/01/22 13:54:28;;;;;;;18.70;5.10;;;5.60;99.90;;;;;;5070435;28;20409;-49
2022/01/22 13:56:58;;;;;;;11.43;4.90;;;5.60;99.90;;;;;;5070299;28;20451;-50
2022/01/22 13:59:26;;;;;;;12.13;4.87;;;5.60;99.90;;;;;;5070687;28;20842;-50
2022/01/22 14:02:08;;;;;;;11.68;5.30;;;5.60;99.90;;;;;;5070969;28;20788;-50
2022/01/22 14:04:41;;;;;;;8.03;4.30;;;5.60;99.90;;;;;;5070600;28;20216;-51
2022/01/22 14:07:25;;;;;;;16.00;5.00;;;5.60;99.90;;;;;;5069855;28;20485;-49
2022/01/22 14:09:58;;;;;;;10.60;3.87;;;5.60;99.90;;;;;;5069848;28;20439;-50
2022/01/22 14:12:27;;;;;;;5.40;3.67;;;5.60;99.90;;;;;;5070405;28;20435;-50
2022/01/22 14:15:10;;;;;;;19.57;5.60;;;5.60;99.90;;;;;;5070293;28;20521;-49
2022/01/22 14:17:53;;;;;;;13.43;5.63;;;5.60;99.90;;;;;;5069202;28;21057;-51
2022/01/22 14:20:26;;;;;;;10.57;4.47;;;5.60;99.90;;;;;;5069395;28;20454;-50
2022/01/22 14:23:03;;;;;;;6.83;5.10;;;5.60;99.90;;;;;;5069913;28;20761;-49
2022/01/22 14:25:31;;;;;;;14.20;4.50;;;5.70;99.90;;;;;;5069739;28;20931;-50
2022/01/22 14:28:05;;;;;;;10.60;4.00;;;5.70;99.90;;;;;;5069832;28;20588;-50
2022/01/22 14:30:41;;;;;;;13.13;4.10;;;5.70;99.90;;;;;;5072270;28;20441;-50
2022/01/22 14:33:09;;;;;;;8.57;5.20;;;5.70;99.90;;;;;;5072503;28;20528;-50
2022/01/22 14:35:39;;;;;;;10.33;3.43;;;5.50;99.90;;;;;;5072372;28;20521;-49
2022/01/22 14:38:22;;;;;;;7.20;3.50;;;5.70;99.90;;;;;;5071770;28;20582;-50
2022/01/22 14:46:45;;;;;;;8.63;3.50;;;5.60;99.90;;;;;;5059667;28;20556;-49
2022/01/22 14:49:12;;;;;;;12.90;5.20;;;5.60;99.90;;;;;;5072645;28;20454;-51
2022/01/22 14:51:40;;;;;;;16.73;5.80;;;5.50;99.90;;;;;;5073120;28;20431;-50